Terminal Aerodrome Forecast
Issued by NWS

Home | Current Version | Previous Version | Text Only | Print | Product List | Glossary On
Versions: 1 2 3 4 5 6 7 8 9 10 11 12 13 14 15 16 17 18 19 20 21 22 23 24 25 26 27 28 29 30 31 32 33 34 35 36 37
000
FTUS44 KHGX 121344 CCA
TAFLBX
TAF COR
KLBX 121344Z 1214/1312 00000KT 1/4SM FG SKC
      TEMPO 1214/1215 1SM BR
     FM121530 22010KT P6SM SKC
     FM130300 VRB04KT P6SM MIFG SCT025
     FM130900 35006KT P6SM OVC012=

USA.gov is the U.S. government's official web portal to all federal, state and local government web resources and services.